Time;durP1;ratioP1;P1;durP2;ratioP2;P2;SDS_P1;SDS_P2;PMS_P1;PMS_P2;Temp;Humidity;BMP_temperature;BMP_pressure;BME280_temperature;BME280_humidity;BME280_pressure;Samples;Min_cycle;Max_cycle;Signal;HPM_P1;HPM_P2
2021/04/23 00:00:49;;;;;;;35.90;4.55;;;3.80;99.90;;;2.15;91.03;101682.44;4871395;28;20106;-81
2021/04/23 00:03:26;;;;;;;17.35;3.58;;;3.70;99.90;;;2.09;90.96;101685.00;4870238;28;20154;-79
2021/04/23 00:05:55;;;;;;;21.80;4.05;;;3.60;99.90;;;1.99;91.17;101682.38;4869497;28;20079;-81
2021/04/23 00:08:20;;;;;;;21.83;4.20;;;3.60;99.90;;;1.95;91.56;101685.81;4877263;28;20079;-82
2021/04/23 00:10:45;;;;;;;24.90;4.18;;;3.50;99.90;;;1.90;91.38;101681.47;4889836;28;20543;-81
2021/04/23 00:13:08;;;;;;;16.92;3.75;;;3.50;99.90;;;1.84;91.93;101690.97;4888273;28;20148;-81
2021/04/23 00:15:31;;;;;;;21.98;3.78;;;3.40;99.90;;;1.78;92.25;101685.75;4887463;28;20098;-80
2021/04/23 00:17:55;;;;;;;27.65;3.65;;;3.40;99.90;;;1.77;92.13;101690.91;4887249;28;20090;-77
2021/04/23 00:20:20;;;;;;;32.67;4.22;;;3.40;99.90;;;1.70;92.89;101681.38;4891907;28;20443;-80
2021/04/23 00:22:44;;;;;;;17.50;2.95;;;3.30;99.90;;;1.68;92.79;101683.94;4891201;28;20102;-82
2021/04/23 00:25:09;;;;;;;24.80;3.42;;;3.30;99.90;;;1.65;92.70;101683.94;4888681;28;20086;-80
2021/04/23 00:27:32;;;;;;;22.38;3.25;;;;;;;1.66;93.36;101683.06;4885533;28;20091;-81
2021/04/23 00:29:55;;;;;;;13.27;3.60;;;3.30;99.90;;;1.68;93.00;101694.34;4888466;28;20496;-80
2021/04/23 00:32:18;;;;;;;19.20;4.57;;;3.30;99.90;;;1.67;93.37;101687.41;4888997;28;20446;-80
2021/04/23 00:34:42;;;;;;;19.50;5.03;;;3.30;99.90;;;1.66;93.16;101690.84;4890741;28;20102;-80
2021/04/23 00:37:05;;;;;;;18.90;4.38;;;3.30;99.90;;;1.63;93.15;101685.66;4884503;28;20109;-80
2021/04/23 00:39:29;;;;;;;25.55;3.67;;;3.30;99.90;;;1.62;93.17;101691.69;4885928;28;20169;-79
2021/04/23 00:41:53;;;;;;;25.17;4.60;;;3.20;99.90;;;1.60;92.91;101696.03;4888209;28;20090;-80
2021/04/23 00:44:16;;;;;;;18.17;3.65;;;3.20;99.90;;;1.54;93.15;101696.00;4891343;28;20421;-80
2021/04/23 00:46:40;;;;;;;27.05;3.83;;;;;;;1.58;93.99;101697.75;4890550;28;20094;-79
2021/04/23 00:49:09;;;;;;;20.85;3.40;;;3.30;99.90;;;1.62;94.02;101690.00;4886692;28;20446;-81
2021/04/23 00:51:34;;;;;;;15.00;3.25;;;3.20;99.90;;;1.54;94.18;101691.66;4887225;28;20110;-81
2021/04/23 00:53:59;;;;;;;23.40;4.10;;;3.20;99.90;;;1.54;93.95;101693.41;4886011;28;20087;-80
2021/04/23 00:56:27;;;;;;;20.70;3.90;;;3.20;99.90;;;1.56;94.19;101694.28;4889850;28;20091;-81
2021/04/23 00:58:52;;;;;;;20.08;4.28;;;3.10;99.90;;;1.44;94.76;101695.06;4886483;28;20091;-81
2021/04/23 01:01:18;;;;;;;19.70;4.22;;;3.00;99.90;;;1.28;94.00;101694.09;4886508;28;20137;-80
2021/04/23 01:03:41;;;;;;;29.08;5.18;;;2.90;99.90;;;1.16;94.21;101694.84;4885966;28;20095;-80
2021/04/23 01:06:10;;;;;;;25.25;3.92;;;2.80;99.90;;;1.08;94.67;101700.84;4886293;28;20091;-80
2021/04/23 01:08:33;;;;;;;31.55;4.03;;;2.70;99.90;;;0.99;95.52;101699.03;4888522;28;20083;-80
2021/04/23 01:11:00;;;;;;;19.05;4.00;;;2.60;99.90;;;0.91;95.81;101703.31;4889336;28;20090;-80
2021/04/23 01:13:28;;;;;;;18.15;3.90;;;2.60;99.90;;;0.88;96.28;101703.28;4886583;28;20534;-80
2021/04/23 01:15:51;;;;;;;17.70;3.65;;;2.50;99.90;;;0.78;96.30;101700.59;4885178;28;20083;-80
2021/04/23 01:18:14;;;;;;;29.27;4.47;;;;;;;0.80;96.62;101705.81;4887857;28;20086;-79
2021/04/23 01:20:36;;;;;;;17.65;3.88;;;2.50;99.90;;;0.79;97.49;101702.31;4890249;28;20106;-78
2021/04/23 01:23:01;;;;;;;20.40;4.47;;;2.60;99.90;;;0.87;97.29;101699.81;4888555;28;20176;-80
2021/04/23 01:25:24;;;;;;;37.23;4.90;;;2.50;99.90;;;0.88;97.66;101705.88;4887959;28;20087;-81
2021/04/23 01:27:48;;;;;;;22.55;3.58;;;2.60;99.90;;;0.92;97.82;101702.44;4885441;28;20380;-79
2021/04/23 01:30:17;;;;;;;25.95;5.05;;;2.70;99.90;;;0.90;97.85;101702.44;4880939;28;20090;-79
2021/04/23 01:32:41;;;;;;;20.08;4.63;;;2.60;99.90;;;0.87;97.93;101706.72;4889824;28;20111;-81
2021/04/23 01:35:07;;;;;;;29.38;4.18;;;2.50;99.90;;;0.78;97.83;101707.53;4889296;28;20125;-80
2021/04/23 01:37:30;;;;;;;36.03;6.03;;;2.50;99.90;;;0.71;98.12;101711.75;4887952;28;20530;-81
2021/04/23 01:39:56;;;;;;;19.95;4.30;;;2.40;99.90;;;0.66;98.22;101707.38;4886855;28;20537;-81
2021/04/23 01:42:18;;;;;;;23.73;4.40;;;2.40;99.90;;;0.70;98.34;101707.44;4886273;28;20140;-81
2021/04/23 01:44:42;;;;;;;33.35;5.35;;;;;;;0.74;98.62;101706.59;4891167;28;20136;-81
2021/04/23 01:47:06;;;;;;;18.20;4.10;;;2.40;99.90;;;0.71;99.36;101705.69;4887448;28;20079;-81
2021/04/23 01:49:31;;;;;;;20.52;4.30;;;;;;;0.73;99.08;101715.22;4886840;28;20091;-80
2021/04/23 01:51:59;;;;;;;27.90;4.50;;;2.50;99.90;;;0.77;99.34;101710.94;4886543;28;20088;-81
2021/04/23 01:54:25;;;;;;;35.00;4.65;;;2.50;99.90;;;0.79;99.05;101717.03;4886043;28;20743;-81
2021/04/23 01:56:51;;;;;;;23.35;4.28;;;3.90;99.90;;;0.82;98.96;101722.22;4890347;28;20173;-80
2021/04/23 01:59:15;;;;;;;24.20;4.40;;;2.50;99.90;;;0.77;98.75;101726.50;4888806;28;20079;-80
2021/04/23 02:01:39;;;;;;;24.03;4.23;;;2.40;99.90;;;0.68;98.40;101726.41;4886735;28;20091;-82
2021/04/23 02:04:06;;;;;;;23.52;4.90;;;2.40;99.90;;;0.59;98.59;101728.06;4887234;28;20209;-81
2021/04/23 02:06:29;;;;;;;13.23;4.10;;;2.30;99.90;;;0.52;98.89;101728.84;4886563;28;20129;-80
2021/04/23 02:08:53;;;;;;;35.17;5.75;;;2.30;99.90;;;0.51;98.58;101723.66;4888437;28;20102;-81
2021/04/23 02:11:19;;;;;;;29.67;4.47;;;2.30;99.90;;;0.54;99.31;101731.44;4888539;28;20492;-81
2021/04/23 02:13:45;;;;;;;15.60;4.32;;;2.30;99.90;;;0.51;99.43;101718.47;4891709;28;20087;-81
2021/04/23 02:16:10;;;;;;;25.35;5.00;;;2.20;99.90;;;0.52;99.63;101727.97;4882380;28;20114;-80
2021/04/23 02:18:35;;;;;;;11.57;4.03;;;2.30;99.90;;;0.57;99.59;101727.16;4893927;28;20445;-80
2021/04/23 02:20:58;;;;;;;28.42;5.53;;;;;;;0.55;99.08;101726.28;4893727;28;20091;-81
2021/04/23 02:23:23;;;;;;;19.35;4.07;;;2.30;99.90;;;0.60;99.24;101734.09;4892928;28;20095;-80
2021/04/23 02:25:47;;;;;;;41.13;5.00;;;2.30;99.90;;;0.66;99.42;101736.75;4891837;28;20443;-81
2021/04/23 02:28:11;;;;;;;26.50;5.20;;;2.40;99.90;;;0.74;99.89;101739.44;4889733;28;20493;-81
2021/04/23 02:30:38;;;;;;;26.58;4.75;;;2.50;99.90;;;0.79;99.61;101737.75;4892703;28;20083;-81
2021/04/23 02:33:02;;;;;;;19.50;4.47;;;2.50;99.90;;;0.80;99.02;101753.34;4892330;28;20145;-81
2021/04/23 02:35:26;;;;;;;28.75;4.57;;;2.50;99.90;;;0.80;99.19;101748.16;4890635;28;20087;-81
2021/04/23 02:37:51;;;;;;;23.40;4.97;;;4.30;99.90;;;0.76;98.88;101755.91;4889495;28;20118;-81
2021/04/23 02:40:19;;;;;;;25.65;4.82;;;2.40;99.90;;;0.73;99.22;101758.44;4890151;28;20526;-80
2021/04/23 02:42:42;;;;;;;24.58;5.45;;;2.40;99.90;;;0.67;98.94;101751.47;4873840;28;20154;-81
2021/04/23 02:45:07;;;;;;;24.60;4.80;;;2.40;99.90;;;0.64;99.32;101751.44;4873585;28;20157;-82
2021/04/23 02:47:31;;;;;;;21.35;4.18;;;;;;;0.63;99.36;101752.31;4873057;28;20527;-81
2021/04/23 02:49:54;;;;;;;25.08;4.80;;;3.20;99.90;;;0.60;99.12;101747.06;4869652;28;20088;-81
2021/04/23 02:52:18;;;;;;;32.10;4.78;;;2.40;99.90;;;0.72;98.95;101762.75;4871752;28;20091;-81
2021/04/23 02:54:41;;;;;;;17.67;3.72;;;2.40;99.90;;;0.73;99.38;101750.66;4871268;28;20104;-81
2021/04/23 02:57:05;;;;;;;32.10;5.10;;;2.40;99.90;;;0.71;98.96;101754.94;4869587;28;20538;-81
2021/04/23 02:59:28;;;;;;;27.90;4.85;;;2.40;99.90;;;0.71;98.83;101754.94;4868873;28;20102;-81
2021/04/23 03:01:56;;;;;;;25.90;4.75;;;2.40;99.90;;;0.68;99.24;101760.97;4860361;28;20091;-80
2021/04/23 03:04:20;;;;;;;33.65;6.47;;;2.40;99.90;;;0.75;98.99;101764.50;4870193;28;20099;-81
2021/04/23 03:06:43;;;;;;;30.50;4.53;;;2.40;99.90;;;0.73;99.27;101766.22;4870769;28;20080;-81
2021/04/23 03:09:07;;;;;;;28.83;4.38;;;2.40;99.90;;;0.71;99.20;101758.41;4870444;28;20424;-81
2021/04/23 03:11:30;;;;;;;31.48;4.40;;;2.40;99.90;;;0.69;98.79;101757.56;4869330;28;20515;-81
2021/04/23 03:13:58;;;;;;;31.50;4.85;;;2.40;99.90;;;0.67;99.29;101755.78;4871589;28;20095;-79
2021/04/23 03:16:22;;;;;;;37.33;5.75;;;2.30;99.90;;;0.58;99.17;101762.63;4869800;28;20084;-80
2021/04/23 03:18:47;;;;;;;23.10;4.47;;;2.20;99.90;;;0.51;99.34;101760.78;4870068;28;20084;-81
2021/04/23 03:21:12;;;;;;;26.77;4.07;;;2.20;99.90;;;0.60;99.26;101760.03;4888445;28;20141;-79
2021/04/23 03:23:36;;;;;;;26.65;4.78;;;2.30;99.90;;;0.52;99.08;101762.56;4891044;28;20083;-80
2021/04/23 03:26:00;;;;;;;17.60;3.95;;;2.20;99.90;;;0.43;99.45;101764.16;4890442;28;20102;-81
2021/04/23 03:28:23;;;;;;;19.40;4.50;;;2.10;99.90;;;0.36;99.11;101764.06;4893658;28;20088;-81
2021/04/23 03:30:47;;;;;;;38.75;4.22;;;2.10;99.90;;;0.30;98.82;101765.72;4892647;28;20087;-81
2021/04/23 03:33:12;;;;;;;18.45;3.58;;;1.90;99.90;;;0.16;98.68;101761.25;4889961;28;20095;-81
2021/04/23 03:35:38;;;;;;;24.80;4.60;;;1.80;99.90;;;0.07;98.62;101766.31;4891031;28;20692;-81
2021/04/23 03:38:04;;;;;;;29.33;4.32;;;1.80;99.90;;;0.07;98.84;101761.13;4887552;28;20094;-81
2021/04/23 03:40:30;;;;;;;11.40;4.03;;;1.80;99.90;;;0.06;99.48;101769.72;4890938;28;20092;-81
2021/04/23 03:42:54;;;;;;;21.95;3.90;;;1.80;99.90;;;0.05;99.66;101773.19;4891491;28;20083;-81
2021/04/23 03:45:20;;;;;;;28.90;4.55;;;1.80;99.90;;;-0.01;99.43;101773.97;4891789;28;20534;-81
2021/04/23 03:47:43;;;;;;;35.67;4.43;;;1.80;99.90;;;-0.01;99.46;101773.97;4888660;28;20095;-80
2021/04/23 03:50:10;;;;;;;29.38;5.07;;;1.80;99.90;;;0.02;99.80;101775.72;4887790;28;20086;-80
2021/04/23 03:52:33;;;;;;;19.35;4.43;;;0.90;99.90;;;0.04;99.83;101778.34;4890081;28;20083;-81
2021/04/23 03:54:57;;;;;;;32.83;4.97;;;1.80;99.90;;;-0.01;99.97;101789.50;4891210;28;20110;-81
2021/04/23 03:57:19;;;;;;;35.50;4.82;;;1.80;99.90;;;-0.03;99.98;101775.66;4890532;28;20096;-81
2021/04/23 03:59:43;;;;;;;20.60;4.07;;;1.80;99.90;;;0.05;99.94;101786.13;4890000;28;20651;-81
2021/04/23 04:02:07;;;;;;;33.28;4.50;;;1.90;99.90;;;0.10;100.00;101779.28;4888186;28;20095;-81
2021/04/23 04:04:30;;;;;;;26.85;4.65;;;1.90;99.90;;;0.18;100.00;101775.09;4891497;28;20098;-81
2021/04/23 04:06:53;;;;;;;28.95;4.50;;;2.00;99.90;;;0.25;100.00;101777.75;4891642;28;20083;-80
2021/04/23 04:09:17;;;;;;;21.67;4.65;;;2.00;99.90;;;0.33;100.00;101782.19;4891842;28;20099;-80
2021/04/23 04:11:42;;;;;;;22.70;4.25;;;2.10;99.90;;;0.39;100.00;101791.75;4888338;28;20102;-81
2021/04/23 04:14:05;;;;;;;16.77;3.97;;;2.10;99.90;;;0.44;100.00;101794.41;4889383;28;20083;-81
2021/04/23 04:16:27;;;;;;;22.60;5.00;;;2.20;99.90;;;0.46;99.79;101795.31;4890483;28;20088;-81
2021/04/23 04:18:50;;;;;;;27.58;5.70;;;;;;;0.50;100.00;101803.13;4891891;28;20080;-82
2021/04/23 04:21:13;;;;;;;19.15;4.68;;;2.20;99.90;;;0.58;99.52;101808.38;4888167;28;20095;-80
2021/04/23 04:23:36;;;;;;;34.20;5.47;;;2.30;99.90;;;0.69;99.86;101805.91;4890070;28;20094;-79
2021/04/23 04:26:01;;;;;;;20.58;4.72;;;2.40;99.90;;;0.82;99.95;101806.09;4887027;28;20546;-80
2021/04/23 04:28:28;;;;;;;29.08;5.03;;;;;;;0.92;99.44;101809.63;4889618;28;20090;-82
2021/04/23 04:30:51;;;;;;;20.90;4.28;;;2.60;99.90;;;1.00;99.17;101810.59;4890950;28;20091;-80
2021/04/23 04:33:15;;;;;;;17.58;4.72;;;2.80;99.90;;;1.14;98.66;101810.72;4891161;28;20095;-81
2021/04/23 04:35:39;;;;;;;20.83;4.10;;;2.90;99.90;;;1.29;97.82;101817.78;4889023;28;20107;-81
2021/04/23 04:38:06;;;;;;;27.25;4.35;;;3.00;99.90;;;1.44;96.37;101820.50;4885857;28;20153;-81
2021/04/23 04:40:30;;;;;;;30.23;4.30;;;2.30;99.90;;;1.62;95.89;101817.22;4892076;28;20084;-79
2021/04/23 04:42:56;;;;;;;19.45;5.00;;;3.40;99.90;;;1.83;95.53;101813.88;4887509;28;20083;-82
2021/04/23 04:45:23;;;;;;;24.10;4.30;;;3.50;99.90;;;1.96;94.95;101820.03;4888946;28;20087;-82
2021/04/23 04:47:49;;;;;;;24.67;5.25;;;3.70;99.90;;;2.23;94.65;101818.47;4887208;28;20103;-81
2021/04/23 04:50:14;;;;;;;;;;;3.70;99.90;;;2.47;93.33;101807.31;4889208;28;20093;-80
2021/04/23 04:52:37;;;;;;;16.88;4.22;;;4.20;99.90;;;2.77;92.51;101800.50;4889522;28;19981;-81
2021/04/23 04:55:02;;;;;;;35.75;4.93;;;4.80;99.90;;;3.54;90.56;101801.44;4890912;28;20155;-81
2021/04/23 04:57:24;;;;;;;25.67;5.35;;;5.40;99.90;;;3.95;86.70;101804.88;4887473;28;20523;-81
2021/04/23 04:59:48;;;;;;;31.67;4.50;;;5.80;99.90;;;4.38;84.89;101797.78;4888478;28;20085;-81
2021/04/23 05:02:13;;;;;;;25.55;4.97;;;6.60;99.90;;;5.33;81.33;101796.38;4887262;28;20100;-80
2021/04/23 05:04:36;;;;;;;17.00;4.45;;;7.60;99.90;;;6.36;77.58;101798.88;4888631;28;20081;-81
2021/04/23 05:06:58;;;;;;;20.23;4.13;;;8.40;99.90;;;7.01;73.45;101803.25;4890162;28;20445;-81
2021/04/23 05:09:21;;;;;;;20.63;3.90;;;9.10;99.90;;;8.11;71.71;101799.66;4887046;28;20081;-77
2021/04/23 05:11:44;;;;;;;17.15;3.53;;;9.80;99.90;;;8.43;68.21;101799.06;4886377;28;20084;-81
2021/04/23 05:14:07;;;;;;;17.67;3.75;;;10.20;99.90;;;8.43;66.11;101804.31;4885735;28;20033;-81
2021/04/23 05:16:30;;;;;;;19.88;3.65;;;10.10;99.90;;;8.74;66.35;101804.53;4890413;28;20492;-82
2021/04/23 05:18:53;;;;;;;17.50;3.42;;;10.10;99.90;;;8.42;67.29;101805.19;4887619;28;20053;-81
2021/04/23 05:21:16;;;;;;;9.48;2.35;;;9.70;99.90;;;7.30;69.35;101826.41;4887535;28;20430;-81
2021/04/23 05:23:39;;;;;;;20.85;3.33;;;8.30;99.90;;;6.20;73.53;101827.84;4888044;28;20132;-81
2021/04/23 05:26:03;;;;;;;16.02;3.22;;;7.60;99.90;;;6.21;76.26;101833.06;4888801;28;20092;-79
2021/04/23 05:28:26;;;;;;;19.60;3.13;;;8.10;99.90;;;6.59;74.47;101826.53;4888089;28;20077;-78
2021/04/23 05:30:50;;;;;;;18.40;3.75;;;8.50;99.90;;;7.25;71.98;101827.34;4891444;28;20085;-78
2021/04/23 05:33:13;;;;;;;17.75;3.22;;;9.60;99.90;;;8.85;69.13;101821.81;4889649;28;20080;-82
2021/04/23 05:35:38;;;;;;;18.58;3.00;;;10.70;99.90;;;9.86;63.51;101822.00;4889321;28;20110;-82
2021/04/23 05:38:01;;;;;;;13.68;2.75;;;11.00;99.90;;;9.48;64.03;101825.59;4886563;28;20073;-81
2021/04/23 05:40:28;;;;;;;20.20;2.92;;;11.60;99.90;;;10.82;60.56;101823.75;4891708;28;20044;-83
2021/04/23 05:42:51;;;;;;;18.20;2.80;;;12.00;99.90;;;9.65;63.25;101833.94;4890781;28;20037;-82
2021/04/23 05:45:15;;;;;;;26.20;3.60;;;11.50;99.90;;;9.95;63.23;101836.69;4887234;28;20563;-81
2021/04/23 05:47:40;;;;;;;9.65;2.45;;;11.30;99.90;;;10.14;64.23;101837.94;4891750;28;20488;-82
2021/04/23 05:50:05;;;;;;;15.45;2.58;;;11.00;99.90;;;9.95;63.40;101832.28;4885803;28;20404;-82
2021/04/23 05:52:29;;;;;;;18.60;3.03;;;10.40;99.90;;;9.04;64.74;101837.13;4921018;28;20538;-82
2021/04/23 05:54:52;;;;;;;25.13;3.05;;;9.30;99.90;;;7.40;70.90;101848.94;4890500;28;20103;-81
2021/04/23 05:57:15;;;;;;;23.02;3.42;;;7.80;99.90;;;5.64;77.80;101854.47;4891279;28;20485;-80
2021/04/23 05:59:37;;;;;;;22.90;3.45;;;7.20;99.90;;;5.62;80.18;101863.22;4891595;28;20093;-81
2021/04/23 06:02:00;;;;;;;24.70;3.35;;;7.00;99.90;;;5.61;80.81;101856.25;4893313;28;20090;-80
2021/04/23 06:04:23;;;;;;;28.52;3.45;;;;;;;5.25;82.51;101859.13;4894859;28;20413;-82
2021/04/23 06:06:46;;;;;;;23.42;3.83;;;6.90;99.90;;;5.77;81.73;101860.47;4889314;28;20081;-80
2021/04/23 06:09:10;;;;;;;19.27;2.90;;;;;;;5.93;80.14;101866.44;4890869;28;20087;-81
2021/04/23 06:11:34;;;;;;;19.67;3.22;;;7.40;99.90;;;6.22;79.93;101868.81;4888562;28;20092;-83
2021/04/23 06:13:57;;;;;;;23.83;3.88;;;7.20;99.90;;;5.65;83.04;101868.41;4889901;28;20089;-80
2021/04/23 06:16:21;;;;;;;23.00;4.05;;;7.00;99.90;;;5.59;82.88;101871.06;4885111;28;20512;-80
2021/04/23 06:18:44;;;;;;;23.02;3.25;;;7.20;99.90;;;5.88;81.37;101876.94;4892305;28;20446;-81
2021/04/23 06:21:08;;;;;;;18.42;3.20;;;;;;;6.24;80.80;101876.63;4891691;28;20084;-80
2021/04/23 06:23:30;;;;;;;21.05;3.25;;;7.60;99.90;;;6.56;78.29;101873.66;4891955;28;20089;-82
2021/04/23 06:25:54;;;;;;;26.60;3.30;;;8.00;99.90;;;7.12;76.08;101871.19;4888824;28;20127;-82
2021/04/23 06:28:17;;;;;;;15.27;3.28;;;8.40;99.90;;;7.12;74.39;101871.19;4891025;28;20103;-81
2021/04/23 06:30:40;;;;;;;25.55;3.63;;;8.70;99.90;;;7.79;74.23;101866.69;4892289;28;20543;-80
2021/04/23 06:33:11;;;;;;;20.35;3.60;;;8.80;99.90;;;7.08;74.95;101872.97;4890361;28;20094;-79
2021/04/23 06:35:35;;;;;;;12.50;2.83;;;8.20;99.90;;;6.42;78.07;101872.97;4892129;28;20097;-84
2021/04/23 06:37:58;;;;;;;23.00;3.95;;;7.90;99.90;;;6.51;79.89;101883.31;4891800;28;20085;-83
2021/04/23 06:40:21;;;;;;;26.35;3.75;;;8.40;99.90;;;7.68;75.33;101873.84;4891575;28;20111;-83
2021/04/23 06:42:45;;;;;;;20.40;3.10;;;8.70;99.90;;;7.12;74.11;101869.44;4891007;28;20088;-84
2021/04/23 06:45:11;;;;;;;19.88;3.08;;;9.40;99.90;;;8.88;69.42;101871.66;4889158;28;20211;-79
2021/04/23 06:47:35;;;;;;;19.90;3.13;;;9.80;99.90;;;8.82;70.18;101878.75;4890764;28;20449;-82
2021/04/23 06:49:58;;;;;;;21.83;3.38;;;9.60;99.90;;;8.11;70.51;101884.47;4892681;28;20078;-81
2021/04/23 06:52:20;;;;;;;11.45;2.80;;;8.70;99.90;;;7.19;75.05;101876.34;4890600;28;20085;-80
2021/04/23 06:54:43;;;;;;;15.05;3.58;;;8.70;99.90;;;7.15;75.08;101877.28;4889063;28;20094;-80
2021/04/23 06:57:06;;;;;;;26.23;3.70;;;8.70;99.90;;;7.40;74.54;101879.53;4889910;28;20547;-79
2021/04/23 06:59:30;;;;;;;25.50;3.65;;;8.80;99.90;;;7.79;71.32;101877.16;4892188;28;20083;-83
2021/04/23 07:01:53;;;;;;;19.92;2.90;;;9.10;99.90;;;8.43;69.65;101869.94;4890172;28;20414;-79
2021/04/23 07:04:16;;;;;;;15.70;3.10;;;10.00;99.90;;;9.69;64.90;101866.28;4890254;28;20537;-81
2021/04/23 07:06:41;;;;;;;18.77;2.80;;;10.40;99.90;;;9.61;67.06;101872.63;4889012;28;20093;-79
2021/04/23 07:09:05;;;;;;;13.73;2.72;;;10.90;99.90;;;9.54;64.31;101868.38;4887010;28;20113;-80
2021/04/23 07:11:28;;;;;;;22.98;3.47;;;10.40;99.90;;;9.31;65.05;101876.84;4891480;28;20089;-79
2021/04/23 07:13:51;;;;;;;20.17;3.42;;;10.50;99.90;;;9.29;64.72;101880.38;4893061;28;20095;-80
2021/04/23 07:16:15;;;;;;;21.38;3.33;;;;;;;9.89;63.26;101882.44;4891685;28;20127;-78
2021/04/23 07:18:38;;;;;;;20.77;2.67;;;11.00;99.90;;;9.87;63.68;101886.91;4889632;28;20088;-81
2021/04/23 07:21:00;;;;;;;15.15;2.75;;;10.60;99.90;;;9.41;66.28;101890.63;4889165;28;20334;-80
2021/04/23 07:23:23;;;;;;;8.55;1.77;;;10.10;99.90;;;8.20;67.21;101909.69;4893125;28;20456;-79
2021/04/23 07:25:47;;;;;;;12.68;2.55;;;9.50;99.90;;;8.30;67.80;101908.63;4890461;28;20108;-82
2021/04/23 07:28:10;;;;;;;11.50;2.00;;;9.40;99.90;;;7.77;68.48;101910.41;4892557;28;20584;-82
2021/04/23 07:30:35;;;;;;;16.35;2.75;;;9.70;99.90;;;8.96;65.69;101906.50;4888695;28;20086;-80
2021/04/23 07:33:00;;;;;;;17.65;2.95;;;10.60;99.90;;;10.14;62.54;101906.38;4887389;28;20081;-80
2021/04/23 07:35:24;;;;;;;12.82;2.72;;;10.50;99.90;;;8.91;64.46;101911.84;4892427;28;20089;-79
2021/04/23 07:37:47;;;;;;;12.57;2.30;;;9.70;99.90;;;8.63;66.23;101924.66;4889296;28;20089;-80
2021/04/23 07:40:15;;;;;;;6.97;1.25;;;10.00;99.90;;;8.20;63.35;101912.31;4885905;28;20541;-81
2021/04/23 07:42:38;;;;;;;9.07;3.05;;;9.00;99.90;;;7.49;66.59;101929.16;4888813;28;20094;-80
2021/04/23 07:45:02;;;;;;;13.90;2.70;;;9.60;99.90;;;8.98;62.81;101920.47;4889466;28;20082;-82
2021/04/23 07:47:24;;;;;;;13.43;2.63;;;9.90;99.90;;;8.88;64.27;101918.94;4883260;28;20547;-82
2021/04/23 07:49:48;;;;;;;17.42;4.10;;;9.90;99.90;;;9.57;63.61;101920.91;4892972;28;20464;-82
2021/04/23 07:52:11;;;;;;;17.52;2.40;;;10.80;99.90;;;9.82;58.69;101925.59;4886685;28;20086;-81
2021/04/23 07:54:36;;;;;;;17.13;2.63;;;11.60;99.90;;;11.40;53.37;101910.72;4889999;28;20588;-79
2021/04/23 07:57:00;;;;;;;13.63;2.55;;;11.20;99.90;;;9.72;60.61;101916.19;4885974;28;20549;-79
2021/04/23 07:59:23;;;;;;;16.48;2.88;;;10.10;99.90;;;8.90;64.35;101918.00;4891924;28;20093;-81
2021/04/23 08:01:50;;;;;;;7.65;1.92;;;10.20;99.90;;;8.78;63.36;101929.63;4892275;28;20454;-80
2021/04/23 08:04:13;;;;;;;12.18;2.50;;;10.20;99.90;;;9.44;62.73;101928.22;4889428;28;20079;-80
2021/04/23 08:06:37;;;;;;;17.23;3.55;;;10.70;99.90;;;9.92;58.79;101926.25;4887093;28;20082;-80
2021/04/23 08:09:00;;;;;;;17.88;3.28;;;10.90;99.90;;;10.38;60.17;101925.94;4890449;28;20081;-81
2021/04/23 08:11:23;;;;;;;10.48;2.00;;;10.90;99.90;;;9.72;60.26;101930.22;4889950;28;20091;-81
2021/04/23 08:13:46;;;;;;;18.58;3.30;;;10.70;99.90;;;10.39;57.77;101925.06;4890919;28;20089;-83
2021/04/23 08:16:09;;;;;;;26.33;3.60;;;11.10;99.90;;;10.32;57.81;101931.34;4890333;28;20183;-83
2021/04/23 08:18:35;;;;;;;19.60;3.17;;;11.40;99.90;;;10.48;57.82;101934.47;4887552;28;20112;-84
2021/04/23 08:20:57;;;;;;;14.40;3.35;;;11.80;99.90;;;11.64;56.60;101934.56;4888131;28;20143;-84
2021/04/23 08:23:21;;;;;;;14.55;3.13;;;11.60;99.90;;;10.16;59.14;101946.66;4890013;28;20575;-85
2021/04/23 08:25:44;;;;;;;12.00;2.85;;;11.30;99.90;;;10.63;59.63;101936.69;4885307;28;20084;-84
2021/04/23 08:28:07;;;;;;;14.82;3.28;;;12.90;99.90;;;10.94;56.65;101932.31;4888375;28;20475;-79
2021/04/23 08:30:30;;;;;;;16.05;2.67;;;11.80;99.90;;;10.93;56.12;101938.47;4889790;28;20092;-77
2021/04/23 08:32:55;;;;;;;24.23;2.63;;;11.60;99.90;;;10.91;56.87;101929.75;4889074;28;20080;-81
2021/04/23 08:35:22;;;;;;;14.85;2.75;;;11.50;99.90;;;10.66;57.10;101941.84;4891729;28;20081;-80
2021/04/23 08:37:45;;;;;;;16.02;2.80;;;11.00;99.90;;;10.54;59.13;101941.31;4889960;28;20069;-82
2021/04/23 08:40:12;;;;;;;10.98;2.72;;;11.30;99.90;;;10.42;56.86;101956.56;4889974;28;20086;-82
2021/04/23 08:42:36;;;;;;;17.65;2.50;;;11.40;99.90;;;10.58;55.34;101945.59;4885895;28;20520;-82
2021/04/23 08:44:59;;;;;;;19.27;2.65;;;11.10;99.90;;;9.95;59.31;101960.34;4884498;28;20085;-81
2021/04/23 08:47:23;;;;;;;7.70;2.20;;;11.60;99.90;;;11.21;54.25;101949.97;4883703;28;20204;-81
2021/04/23 08:49:46;;;;;;;13.13;2.60;;;12.00;99.90;;;11.36;53.84;101942.50;4883727;28;20567;-82
2021/04/23 08:52:09;;;;;;;12.75;3.67;;;11.90;99.90;;;11.02;52.60;101947.00;4884964;28;20088;-81
2021/04/23 08:54:32;;;;;;;13.73;2.30;;;11.70;99.90;;;10.95;56.85;101941.94;4890856;28;20529;-83
2021/04/23 08:56:56;;;;;;;9.43;2.42;;;11.80;99.90;;;11.21;54.91;101938.53;4903174;28;20087;-80
2021/04/23 08:59:19;;;;;;;13.05;2.30;;;11.70;99.90;;;10.18;57.31;101949.28;4906005;28;20644;-81
2021/04/23 09:02:02;;;;;;;12.30;2.65;;;11.60;99.90;;;10.38;57.22;101947.00;4873918;28;21325;-80
2021/04/23 09:04:54;;;;;;;13.52;2.72;;;12.00;99.90;;;10.92;55.89;101942.03;4852654;28;20521;-80
2021/04/23 09:07:20;;;;;;;12.60;2.10;;;12.10;99.90;;;10.59;55.33;101942.09;4859963;28;20108;-83
2021/04/23 09:10:18;;;;;;;14.05;3.00;;;11.90;99.90;;;10.53;55.49;101942.25;4862468;28;20166;-82
2021/04/23 09:12:44;;;;;;;18.73;3.40;;;12.00;99.90;;;10.77;56.00;101938.91;4845904;28;20098;-84
2021/04/23 09:15:38;;;;;;;8.68;2.05;;;11.90;99.90;;;10.28;56.60;101945.50;4867033;28;20081;-81
2021/04/23 09:18:43;;;;;;;11.10;1.80;;;11.80;99.90;;;10.25;55.61;101956.94;4831741;28;20119;-80
2021/04/23 09:24:39;;;;;;;9.05;2.00;;;11.70;99.90;;;10.40;54.60;101958.34;4841228;28;20083;-79
2021/04/23 09:28:09;;;;;;;10.25;1.95;;;11.80;99.90;;;10.22;55.42;101966.72;4844256;28;20158;-80
2021/04/23 09:31:25;;;;;;;11.55;1.95;;;11.90;99.90;;;10.49;54.93;101956.41;4840734;28;20093;-83
2021/04/23 09:34:50;;;;;;;7.50;1.65;;;11.90;99.90;;;10.71;53.22;101960.16;4882787;27;23563;-84
2021/04/23 09:37:59;;;;;;;8.50;2.35;;;11.90;99.90;;;10.70;54.52;101966.34;4842877;28;20089;-83
2021/04/23 09:40:57;;;;;;;6.22;1.38;;;12.10;99.90;;;10.53;51.80;101966.81;4843626;28;20092;-81
2021/04/23 09:43:39;;;;;;;7.63;1.98;;;11.30;99.90;;;9.58;53.79;101975.22;4844029;28;20107;-81
2021/04/23 09:50:49;;;;;;;15.70;2.60;;;11.30;99.90;;;9.57;52.50;101973.50;4837120;28;20102;-82
2021/04/23 09:53:43;;;;;;;9.82;2.33;;;10.60;99.90;;;8.98;54.47;101979.13;4853309;28;20121;-81
2021/04/23 09:56:09;;;;;;;8.57;1.50;;;10.10;99.90;;;8.60;56.72;101987.75;4829223;28;20080;-81
2021/04/23 10:06:05;;;;;;;4.57;1.30;;;10.90;99.90;;;9.58;49.47;101985.75;4838851;28;20081;-79
2021/04/23 10:08:44;;;;;;;5.53;0.70;;;;;;;10.99;51.62;101994.53;4841573;28;20161;-81
2021/04/23 10:30:27;;;;;;;3.45;0.47;;;12.40;99.90;;;11.04;41.35;102007.59;4839422;28;20176;-83
2021/04/23 10:40:56;;;;;;;1.30;0.55;;;12.40;98.60;;;11.34;42.23;101999.69;4833238;28;20168;-81
2021/04/23 10:43:36;;;;;;;4.10;0.60;;;11.90;99.50;;;10.63;40.37;102002.53;4849153;28;20355;-82
2021/04/23 10:46:42;;;;;;;5.30;0.68;;;12.00;99.30;;;11.20;44.11;102006.22;4834509;28;20163;-80
2021/04/23 10:49:21;;;;;;;2.20;0.52;;;12.10;98.50;;;10.61;42.16;102011.38;4816139;28;20091;-80
2021/04/23 10:52:11;;;;;;;3.40;0.30;;;11.40;96.90;;;9.61;41.88;102019.88;4838347;28;20131;-80
2021/04/23 10:55:12;;;;;;;1.38;0.40;;;10.50;97.60;;;8.70;42.53;102030.44;4817860;28;20183;-80
2021/04/23 10:57:54;;;;;;;3.00;0.60;;;11.00;99.60;;;10.23;40.20;102019.31;4856177;28;20586;-80
2021/04/23 11:00:33;;;;;;;2.10;0.30;;;11.90;98.00;;;10.71;39.04;102007.56;4878136;28;20111;-81